Аэропорт: Остафьево. Москва

ICAO: UUMO

METAR:
2021-01-19 10:00:00
UUMO 191000Z 26001MPS 7000 NSC M15/M17 Q1015 R25/850245 NOSIG RMK QFE746/0995
METAR:
Информация по данной станции не доступна